Pagina principală
METAR-TAF:

METAR-TAF

Aeroporturi :

Port Vila, Efate, Vanuatu

Latitudine: 17-42S, longitudine: 168-18E, elevație: 20 m

Observații meteo curente

Raportul a fost făcut în urmă cu 29 de minute, la 12:00 UTC
Vânt 5 kt de la Est/Sud-est
Temperatură 22°C
Umiditate 88%
Presiune 1015 hPa
Vizibilitate de 10 km sau mai mult
Nori puțini la o înălțime de 2000 picior

METAR: NVVV 281200Z 11005KT 9999 FEW020 22/20 Q1015

Ora: 23:29 (12:29 UTC)

Prognoză

Raportul a fost făcut în urmă cu 1 oră și 29 de minute, la 11:00 UTC
Prognoză valabilă de la 28 ora 12 UTC la 29 ora 12 UTC
Vânt 4 kt din direcții variabile
Vizibilitate de 10 km sau mai mult
Nori puțini la o înălțime de 2000 picior

TAF: NVVV 281100Z 2812/2912 VRB04KT 9999 FEW020

Observații și prognoze meteo pentru peste 4.000 de aeroporturi (rapoarte METAR și TAF).

Stațiile disponibile sunt reprezentate pe hartă prin puncte galbene și roșii.

Țineți indicatorul mouse-ului pe punctul dorit pentru a vedea denumirea stației.

Apoi, faceți clic pentru a vedea observațiile și prognozele meteorologice.

Pentru a schimba harta: Pentru mărire, faceți clic pe butoanele verzi cu cruce neagră; pentru micșorare, pe butonul verde cu o liniuță; pentru hărți învecinate, pe săgețile verzi.


METAR-TAF: